createdAt,value
2022-11-19T00:02:10.139Z,82.32
2022-11-19T00:04:37.499Z,81.79
2022-11-19T00:07:05.981Z,81.43
2022-11-19T00:09:34.545Z,80.94
2022-11-19T00:12:20.504Z,80.68
2022-11-19T00:14:48.897Z,80.85
2022-11-19T00:17:16.305Z,81.04
2022-11-19T00:19:43.658Z,81.41
2022-11-19T00:22:11.787Z,82.05
2022-11-19T00:24:42.147Z,81.76
2022-11-19T00:27:10.978Z,81.87
2022-11-19T00:29:39.701Z,81.90
2022-11-19T00:32:08.199Z,81.58
2022-11-19T00:34:35.545Z,81.75
2022-11-19T00:37:03.100Z,81.60
2022-11-19T00:39:30.431Z,81.38
2022-11-19T00:41:58.146Z,81.30
2022-11-19T00:44:33.943Z,81.48
2022-11-19T00:47:05.018Z,81.65
2022-11-19T00:49:33.307Z,81.82
2022-11-19T00:52:00.705Z,82.01
2022-11-19T00:54:28.241Z,82.27
2022-11-19T00:56:55.758Z,82.41
2022-11-19T00:59:22.866Z,82.42
2022-11-19T01:01:51.667Z,82.58
2022-11-19T01:04:20.038Z,82.97
2022-11-19T01:06:49.467Z,83.32
2022-11-19T01:09:17.246Z,83.72
2022-11-19T01:11:44.907Z,83.89
2022-11-19T01:14:12.706Z,84.06
2022-11-19T01:16:41.738Z,84.02
2022-11-19T01:19:11.547Z,84.43
2022-11-19T01:21:39.181Z,84.71
2022-11-19T01:24:07.107Z,85.15
2022-11-19T01:26:34.834Z,85.66
2022-11-19T01:29:03.421Z,86.22
2022-11-19T01:31:31.158Z,86.32
2022-11-19T01:34:01.338Z,86.42
2022-11-19T01:36:30.190Z,86.79
2022-11-19T01:38:58.886Z,87.03
2022-11-19T01:41:33.380Z,87.10
2022-11-19T01:44:06.658Z,86.90
2022-11-19T01:46:35.551Z,87.07
2022-11-19T01:49:10.989Z,87.31
2022-11-19T01:51:48.066Z,87.73
2022-11-19T01:54:43.418Z,88.02
2022-11-19T01:57:14.713Z,88.18
2022-11-19T01:59:43.785Z,88.45
2022-11-19T02:02:13.079Z,88.42
2022-11-19T02:04:41.306Z,88.58
2022-11-19T02:07:12.145Z,88.51
2022-11-19T02:09:41.522Z,88.70
2022-11-19T02:12:50.589Z,88.81
2022-11-19T02:15:29.547Z,89.00
2022-11-19T02:18:30.258Z,88.73
2022-11-19T02:21:40.819Z,88.76
2022-11-19T02:24:44.746Z,88.94
2022-11-19T02:27:29.235Z,88.83
2022-11-19T02:30:21.283Z,88.57
2022-11-19T02:32:59.178Z,88.32
2022-11-19T02:35:50.077Z,87.96
2022-11-19T02:38:41.867Z,87.94
2022-11-19T02:41:37.981Z,87.70
2022-11-19T02:45:19.147Z,87.60
2022-11-19T02:48:00.906Z,88.08
2022-11-19T02:50:42.079Z,88.29
2022-11-19T02:53:11.189Z,88.03
2022-11-19T02:55:39.859Z,87.78
2022-11-19T02:58:37.468Z,87.73
2022-11-19T03:01:26.833Z,87.79
2022-11-19T03:04:14.867Z,87.66
2022-11-19T03:06:42.140Z,87.83
2022-11-19T03:09:09.834Z,87.68
2022-11-19T03:11:37.147Z,87.56
2022-11-19T03:14:48.619Z,87.54
2022-11-19T03:17:32.388Z,87.58
2022-11-19T03:20:15.500Z,87.25
2022-11-19T03:22:58.638Z,87.63
2022-11-19T03:25:28.067Z,88.10
2022-11-19T03:28:02.355Z,87.57
2022-11-19T03:30:31.763Z,87.61
2022-11-19T03:33:07.146Z,87.79
2022-11-19T03:35:43.738Z,87.74
2022-11-19T03:38:17.178Z,87.59
2022-11-19T03:40:53.058Z,87.68
2022-11-19T03:43:24.699Z,87.52
2022-11-19T03:45:54.706Z,87.28
2022-11-19T03:48:23.786Z,87.28
2022-11-19T03:50:56.946Z,87.46
2022-11-19T03:53:24.786Z,87.59
2022-11-19T03:56:07.268Z,87.78
2022-11-19T03:58:42.920Z,87.92
2022-11-19T04:01:16.662Z,87.47
2022-11-19T04:04:03.679Z,87.31
2022-11-19T04:06:31.206Z,87.16
2022-11-19T04:08:58.688Z,87.29
2022-11-19T04:13:51.999Z,86.98
2022-11-19T04:16:19.479Z,86.68
2022-11-19T04:18:47.018Z,86.33
2022-11-19T04:21:14.458Z,85.83
2022-11-19T04:23:45.058Z,85.94
2022-11-19T04:26:18.658Z,85.95
2022-11-19T04:28:45.938Z,85.56
2022-11-19T04:31:17.653Z,84.99
2022-11-19T04:33:45.580Z,84.56
2022-11-19T04:36:12.939Z,84.12
2022-11-19T04:38:40.387Z,83.78
2022-11-19T04:41:08.980Z,83.55
2022-11-19T04:43:36.339Z,82.82
2022-11-19T04:46:04.937Z,82.38
2022-11-19T04:48:32.266Z,82.31
2022-11-19T04:50:59.699Z,82.29
2022-11-19T04:53:28.258Z,82.11
2022-11-19T04:55:55.657Z,81.70
2022-11-19T04:58:23.219Z,81.30
2022-11-19T05:00:51.666Z,80.91
2022-11-19T05:03:19.111Z,80.49
2022-11-19T05:05:47.660Z,80.57
2022-11-19T05:08:14.986Z,80.19
2022-11-19T05:10:44.786Z,80.33
2022-11-19T05:13:13.347Z,80.68
2022-11-19T05:15:40.499Z,80.66
2022-11-19T05:18:08.987Z,80.86
2022-11-19T05:20:36.467Z,80.61
2022-11-19T05:23:03.867Z,80.64
2022-11-19T05:25:32.384Z,80.43
2022-11-19T05:28:01.947Z,80.83
2022-11-19T05:30:29.418Z,81.12
2022-11-19T05:32:58.786Z,81.28
2022-11-19T05:35:26.298Z,81.47
2022-11-19T05:37:55.700Z,81.65
2022-11-19T05:40:23.498Z,81.71
2022-11-19T05:42:51.738Z,81.49
2022-11-19T05:45:20.226Z,81.53
2022-11-19T05:47:48.927Z,82.12
2022-11-19T05:50:17.698Z,82.36
2022-11-19T05:52:46.419Z,82.24
2022-11-19T05:55:21.156Z,82.04
2022-11-19T05:57:48.988Z,81.89
2022-11-19T06:00:18.460Z,81.87
2022-11-19T06:02:45.800Z,82.00
2022-11-19T06:05:13.099Z,82.28
2022-11-19T06:07:40.669Z,82.95
2022-11-19T06:10:14.778Z,83.43
2022-11-19T06:12:45.933Z,83.51
2022-11-19T06:15:15.298Z,83.44
2022-11-19T06:17:43.817Z,83.43
2022-11-19T06:20:11.579Z,83.47
2022-11-19T06:22:40.386Z,83.55
2022-11-19T06:25:08.271Z,83.79
2022-11-19T06:27:35.739Z,83.94
2022-11-19T06:30:03.629Z,84.05
2022-11-19T06:32:30.991Z,84.32
2022-11-19T06:34:58.502Z,84.62
2022-11-19T06:37:26.018Z,84.94
2022-11-19T06:39:54.547Z,85.20
2022-11-19T06:42:37.720Z,85.70
2022-11-19T06:45:11.418Z,85.89
2022-11-19T06:47:40.498Z,86.50
2022-11-19T06:50:10.629Z,86.86
2022-11-19T06:52:38.037Z,87.08
2022-11-19T06:55:06.831Z,86.86
2022-11-19T06:57:34.259Z,87.29
2022-11-19T07:00:08.419Z,87.79
2022-11-19T07:02:35.859Z,88.25
2022-11-19T07:05:02.861Z,88.01
2022-11-19T07:07:30.439Z,88.01
2022-11-19T07:09:58.779Z,87.95
2022-11-19T07:12:27.669Z,87.39
2022-11-19T07:14:59.736Z,87.42
2022-11-19T07:17:31.308Z,87.46
2022-11-19T07:19:58.819Z,88.03
2022-11-19T07:22:38.538Z,88.60
2022-11-19T07:25:06.507Z,88.75
2022-11-19T07:27:34.019Z,89.05
2022-11-19T07:30:04.506Z,89.12
2022-11-19T07:32:33.261Z,89.04
2022-11-19T07:35:02.667Z,88.93
2022-11-19T07:37:29.907Z,88.87
2022-11-19T07:39:57.458Z,88.48
2022-11-19T07:42:43.623Z,88.05
2022-11-19T07:45:22.304Z,87.24
2022-11-19T07:47:50.019Z,86.52
2022-11-19T07:50:18.210Z,86.16
2022-11-19T07:52:45.579Z,85.91
2022-11-19T07:55:12.906Z,85.69
2022-11-19T07:57:40.403Z,85.58
2022-11-19T08:00:08.907Z,85.50
2022-11-19T08:02:37.107Z,84.37
2022-11-19T08:05:13.059Z,83.45
2022-11-19T08:07:41.818Z,83.67
2022-11-19T08:10:10.741Z,83.76
2022-11-19T08:12:38.103Z,83.11
2022-11-19T08:15:05.993Z,82.55
2022-11-19T08:17:52.106Z,81.15
2022-11-19T08:20:20.760Z,79.84
2022-11-19T08:22:49.219Z,79.18
2022-11-19T08:25:16.778Z,78.78
2022-11-19T08:27:50.259Z,78.79
2022-11-19T08:30:17.498Z,78.85
2022-11-19T08:32:44.667Z,78.31
2022-11-19T08:35:11.739Z,77.88
2022-11-19T08:37:39.107Z,75.06
2022-11-19T08:40:07.029Z,69.63
2022-11-19T08:42:52.942Z,64.70
2022-11-19T08:45:22.538Z,58.96
2022-11-19T08:47:49.867Z,54.86
2022-11-19T08:50:17.386Z,54.49
2022-11-19T08:52:44.758Z,51.52
2022-11-19T08:55:11.728Z,50.88
2022-11-19T08:57:40.166Z,49.07
2022-11-19T09:00:08.320Z,49.51
2022-11-19T09:02:35.759Z,48.54
2022-11-19T09:05:03.158Z,47.59
2022-11-19T09:07:31.584Z,48.35
2022-11-19T09:09:58.686Z,47.16
2022-11-19T09:12:25.730Z,47.55
2022-11-19T09:14:52.877Z,46.77
2022-11-19T09:17:20.398Z,45.74
2022-11-19T09:19:48.441Z,42.60
2022-11-19T09:22:15.798Z,43.10
2022-11-19T09:24:42.838Z,46.28
2022-11-19T09:27:10.209Z,46.45
2022-11-19T09:29:37.647Z,45.85
2022-11-19T09:32:05.126Z,46.18
2022-11-19T09:34:32.638Z,48.00
2022-11-19T09:37:00.126Z,48.58
2022-11-19T09:39:27.519Z,50.05
2022-11-19T09:42:11.799Z,51.17
2022-11-19T09:45:00.959Z,52.79
2022-11-19T09:47:46.280Z,54.21
2022-11-19T09:50:31.606Z,55.51
2022-11-19T09:53:02.918Z,55.43
2022-11-19T09:55:35.085Z,55.92
2022-11-19T09:58:06.416Z,56.02
2022-11-19T10:00:34.728Z,56.41
2022-11-19T10:03:11.752Z,56.74
2022-11-19T10:06:07.038Z,57.00
2022-11-19T10:08:55.850Z,57.64
2022-11-19T10:11:38.012Z,57.29
2022-11-19T10:14:28.002Z,57.79
2022-11-19T10:17:04.641Z,58.54
2022-11-19T10:20:04.280Z,58.42
2022-11-19T10:22:40.286Z,59.40
2022-11-19T10:25:23.477Z,60.62
2022-11-19T10:27:57.598Z,59.70
2022-11-19T10:30:27.285Z,59.38
2022-11-19T10:33:01.922Z,59.31
2022-11-19T10:35:36.330Z,60.30
2022-11-19T10:38:07.958Z,60.62
2022-11-19T10:41:14.492Z,60.15
2022-11-19T10:44:07.798Z,60.51
2022-11-19T10:46:37.037Z,60.76
2022-11-19T10:49:11.048Z,61.21
2022-11-19T10:51:41.765Z,61.20
2022-11-19T10:54:30.694Z,62.61
2022-11-19T10:57:00.757Z,63.01
2022-11-19T10:59:33.240Z,61.26
2022-11-19T11:02:46.046Z,62.41
2022-11-19T11:05:17.077Z,62.65
2022-11-19T11:07:54.530Z,62.27
2022-11-19T11:10:31.404Z,61.68
2022-11-19T11:13:25.278Z,62.82
2022-11-19T11:15:54.523Z,62.60
2022-11-19T11:18:27.729Z,62.37
2022-11-19T11:21:00.742Z,61.81
2022-11-19T11:23:33.572Z,61.57
2022-11-19T11:26:10.959Z,62.76
2022-11-19T11:28:58.486Z,62.46
2022-11-19T11:31:39.807Z,64.26
2022-11-19T11:34:36.038Z,64.75
2022-11-19T11:37:10.557Z,64.96
2022-11-19T11:39:46.602Z,63.89
2022-11-19T11:42:21.958Z,63.42
2022-11-19T11:44:59.758Z,62.29
2022-11-19T11:47:33.848Z,61.45
2022-11-19T11:50:21.918Z,61.54
2022-11-19T11:52:54.841Z,62.02
2022-11-19T11:55:26.000Z,62.42
2022-11-19T11:58:05.171Z,62.28
2022-11-19T12:00:46.958Z,59.52
2022-11-19T12:03:22.730Z,59.76
2022-11-19T12:06:19.358Z,58.69
2022-11-19T12:09:16.304Z,58.47
2022-11-19T12:12:26.471Z,58.34
2022-11-19T12:15:27.066Z,59.12
2022-11-19T12:18:22.858Z,59.95
2022-11-19T12:21:48.782Z,58.25
2022-11-19T12:24:34.899Z,58.82
2022-11-19T12:27:05.227Z,58.07
2022-11-19T12:29:53.433Z,57.79
2022-11-19T12:32:50.039Z,58.08
2022-11-19T12:35:31.881Z,57.02
2022-11-19T12:38:26.257Z,57.77
2022-11-19T12:41:08.238Z,56.78
2022-11-19T12:43:51.758Z,54.75
2022-11-19T12:46:39.317Z,54.69
2022-11-19T12:49:23.778Z,55.37
2022-11-19T12:52:28.824Z,55.00
2022-11-19T12:55:15.083Z,56.28
2022-11-19T12:58:01.932Z,56.17
2022-11-19T13:00:40.812Z,56.41
2022-11-19T13:03:21.879Z,58.35
2022-11-19T13:06:26.118Z,57.56
2022-11-19T13:09:07.638Z,56.65
2022-11-19T13:11:45.839Z,57.84
2022-11-19T13:14:41.878Z,59.09
2022-11-19T13:17:20.478Z,57.97
2022-11-19T13:19:54.166Z,58.75
2022-11-19T13:22:34.295Z,57.12
2022-11-19T13:25:50.198Z,57.96
2022-11-19T13:28:36.361Z,57.91
2022-11-19T13:31:13.797Z,58.18
2022-11-19T13:33:50.398Z,60.78
2022-11-19T13:36:44.758Z,58.64
2022-11-19T13:39:23.231Z,57.94
2022-11-19T13:42:12.247Z,57.85
2022-11-19T13:44:46.157Z,58.57
2022-11-19T13:47:34.844Z,58.23
2022-11-19T13:50:12.206Z,59.40
2022-11-19T13:52:46.920Z,58.35
2022-11-19T13:55:35.479Z,59.04
2022-11-19T13:58:27.238Z,58.15
2022-11-19T14:01:10.140Z,58.76
2022-11-19T14:04:04.531Z,59.49
2022-11-19T14:06:56.283Z,57.11
2022-11-19T14:09:36.838Z,56.71
2022-11-19T14:12:29.367Z,56.15
2022-11-19T14:15:51.879Z,53.81
2022-11-19T14:18:48.966Z,54.05
2022-11-19T14:21:43.233Z,53.88
2022-11-19T14:24:45.320Z,54.04
2022-11-19T14:27:18.718Z,54.08
2022-11-19T14:29:46.687Z,55.14
2022-11-19T14:32:13.840Z,55.12
2022-11-19T14:35:09.958Z,55.16
2022-11-19T14:37:56.118Z,55.11
2022-11-19T14:40:31.159Z,55.47
2022-11-19T14:43:20.424Z,56.26
2022-11-19T14:46:14.318Z,56.88
2022-11-19T14:48:42.478Z,57.90
2022-11-19T14:51:15.367Z,57.74
2022-11-19T14:53:56.131Z,58.16
2022-11-19T14:56:27.608Z,58.89
2022-11-19T14:59:10.337Z,59.31
2022-11-19T15:02:07.491Z,59.88
2022-11-19T15:04:44.899Z,60.56
2022-11-19T15:07:35.462Z,60.03
2022-11-19T15:10:11.599Z,60.55
2022-11-19T15:13:04.299Z,60.98
2022-11-19T15:15:39.968Z,61.28
2022-11-19T15:18:54.007Z,61.40
2022-11-19T15:21:30.358Z,62.37
2022-11-19T15:24:25.998Z,62.88
2022-11-19T15:27:25.718Z,63.49
2022-11-19T15:30:20.609Z,64.46
2022-11-19T15:33:13.851Z,65.25
2022-11-19T15:36:00.326Z,65.36
2022-11-19T15:38:42.878Z,65.42
2022-11-19T15:41:17.646Z,65.61
2022-11-19T15:43:52.077Z,65.61
2022-11-19T15:46:30.592Z,65.94
2022-11-19T15:49:19.052Z,66.02
2022-11-19T15:52:00.238Z,66.70
2022-11-19T15:54:30.078Z,67.21
2022-11-19T15:57:23.978Z,67.67
2022-11-19T16:00:03.889Z,67.95
2022-11-19T16:02:35.280Z,68.62
2022-11-19T16:05:06.177Z,68.42
2022-11-19T16:07:36.173Z,67.59
2022-11-19T16:10:08.216Z,68.65
2022-11-19T16:13:15.461Z,68.69
2022-11-19T16:16:18.959Z,68.84
2022-11-19T16:18:52.927Z,69.08
2022-11-19T16:21:27.248Z,69.54
2022-11-19T16:24:17.358Z,69.41
2022-11-19T16:26:45.368Z,69.63
2022-11-19T16:29:36.518Z,69.96
2022-11-19T16:32:09.440Z,70.31
2022-11-19T16:34:39.519Z,70.53
2022-11-19T16:37:07.172Z,70.83
2022-11-19T16:39:34.927Z,71.02
2022-11-19T16:42:18.007Z,71.76
2022-11-19T16:44:54.407Z,72.16
2022-11-19T16:47:40.559Z,72.22
2022-11-19T16:50:42.385Z,72.60
2022-11-19T16:53:47.250Z,72.68
2022-11-19T16:56:17.038Z,73.09
2022-11-19T16:58:46.878Z,73.34
2022-11-19T17:01:18.404Z,73.77
2022-11-19T17:03:46.019Z,73.74
2022-11-19T17:06:26.085Z,74.04
2022-11-19T17:09:01.329Z,73.71
2022-11-19T17:12:10.409Z,73.71
2022-11-19T17:14:47.330Z,73.83
2022-11-19T17:17:35.580Z,74.04
2022-11-19T17:20:24.286Z,73.84
2022-11-19T17:22:51.930Z,73.66
2022-11-19T17:25:20.159Z,74.01
2022-11-19T17:27:53.608Z,73.89
2022-11-19T17:30:31.517Z,73.88
2022-11-19T17:33:05.686Z,73.78
2022-11-19T17:35:52.000Z,73.56
2022-11-19T17:38:31.598Z,74.00
2022-11-19T17:41:01.007Z,73.91
2022-11-19T17:43:53.519Z,74.18
2022-11-19T17:46:24.401Z,74.12
2022-11-19T17:48:53.650Z,74.33
2022-11-19T17:51:23.638Z,74.19
2022-11-19T17:53:52.738Z,74.28
2022-11-19T17:56:27.359Z,74.38
2022-11-19T17:58:56.159Z,74.53
2022-11-19T18:01:23.973Z,74.45
2022-11-19T18:03:51.606Z,74.37
2022-11-19T18:06:20.059Z,74.48
2022-11-19T18:08:50.967Z,74.50
2022-11-19T18:11:22.847Z,74.30
2022-11-19T18:13:56.009Z,74.23
2022-11-19T18:16:27.439Z,74.10
2022-11-19T18:18:57.399Z,74.25
2022-11-19T18:21:29.199Z,74.19
2022-11-19T18:24:00.572Z,74.39
2022-11-19T18:26:38.694Z,74.24
2022-11-19T18:29:09.367Z,74.36
2022-11-19T18:31:45.526Z,74.55
2022-11-19T18:34:25.463Z,74.62
2022-11-19T18:36:55.130Z,74.75
2022-11-19T18:39:25.419Z,74.75
2022-11-19T18:41:55.278Z,74.59
2022-11-19T18:44:35.240Z,74.55
2022-11-19T18:47:12.397Z,74.73
2022-11-19T18:49:42.708Z,75.08
2022-11-19T18:52:15.841Z,75.62
2022-11-19T18:54:46.047Z,75.84
2022-11-19T18:57:14.149Z,76.27
2022-11-19T18:59:42.367Z,77.06
2022-11-19T19:02:13.041Z,77.60
2022-11-19T19:04:48.332Z,78.05
2022-11-19T19:07:22.218Z,78.54
2022-11-19T19:09:52.888Z,78.55
2022-11-19T19:12:21.960Z,78.64
2022-11-19T19:14:56.663Z,78.63
2022-11-19T19:17:26.306Z,79.46
2022-11-19T19:19:58.540Z,79.59
2022-11-19T19:22:32.121Z,79.84
2022-11-19T19:25:02.728Z,80.04
2022-11-19T19:27:38.807Z,80.40
2022-11-19T19:30:06.839Z,80.46
2022-11-19T19:32:40.410Z,80.54
2022-11-19T19:35:08.158Z,80.77
2022-11-19T19:37:43.318Z,80.64
2022-11-19T19:40:11.968Z,81.01
2022-11-19T19:42:41.409Z,81.27
2022-11-19T19:45:10.698Z,81.27
2022-11-19T19:47:37.959Z,81.14
2022-11-19T19:50:06.046Z,82.09
2022-11-19T19:52:33.727Z,82.63
2022-11-19T19:55:03.061Z,82.56
2022-11-19T19:57:31.366Z,82.72
2022-11-19T20:00:01.721Z,82.73
2022-11-19T20:02:30.958Z,83.11
2022-11-19T20:05:00.598Z,83.28
2022-11-19T20:07:33.059Z,83.17
2022-11-19T20:10:07.888Z,83.54
2022-11-19T20:12:54.808Z,84.17
2022-11-19T20:15:30.376Z,84.35
2022-11-19T20:18:00.415Z,84.35
2022-11-19T20:20:28.695Z,84.92
2022-11-19T20:22:59.998Z,85.78
2022-11-19T20:25:30.702Z,85.98
2022-11-19T20:28:01.357Z,85.69
2022-11-19T20:30:33.215Z,85.16
2022-11-19T20:33:04.738Z,85.17
2022-11-19T20:35:37.358Z,85.33
2022-11-19T20:38:08.423Z,85.41
2022-11-19T20:40:39.849Z,85.16
2022-11-19T20:43:31.641Z,85.29
2022-11-19T20:46:13.038Z,85.51
2022-11-19T20:48:44.135Z,86.03
2022-11-19T20:51:15.058Z,86.58
2022-11-19T20:53:46.059Z,86.71
2022-11-19T20:56:17.865Z,86.87
2022-11-19T20:58:48.480Z,87.21
2022-11-19T21:01:16.526Z,87.68
2022-11-19T21:03:46.247Z,87.92
2022-11-19T21:06:14.805Z,88.06
2022-11-19T21:08:42.399Z,88.13
2022-11-19T21:11:12.448Z,88.19
2022-11-19T21:13:40.957Z,88.14
2022-11-19T21:16:20.071Z,88.00
2022-11-19T21:18:47.958Z,87.77
2022-11-19T21:21:17.038Z,87.17
2022-11-19T21:23:46.597Z,86.69
2022-11-19T21:26:14.618Z,86.67
2022-11-19T21:28:44.801Z,86.79
2022-11-19T21:31:16.365Z,87.10
2022-11-19T21:33:49.975Z,87.60
2022-11-19T21:36:17.838Z,88.32
2022-11-19T21:38:45.277Z,88.73
2022-11-19T21:41:13.047Z,89.26
2022-11-19T21:43:41.168Z,90.00
2022-11-19T21:46:08.767Z,90.50
2022-11-19T21:48:39.363Z,90.92
2022-11-19T21:51:09.079Z,91.44
2022-11-19T21:53:36.687Z,91.45
2022-11-19T21:56:04.409Z,91.76
2022-11-19T21:58:31.798Z,91.77
2022-11-19T22:01:04.601Z,91.57
2022-11-19T22:03:33.569Z,91.42
2022-11-19T22:06:09.758Z,91.02
2022-11-19T22:08:40.277Z,90.27
2022-11-19T22:11:27.438Z,89.91
2022-11-19T22:13:59.198Z,90.01
2022-11-19T22:16:27.762Z,90.66
2022-11-19T22:18:55.277Z,90.86
2022-11-19T22:21:22.758Z,90.88
2022-11-19T22:24:00.062Z,90.83
2022-11-19T22:26:27.679Z,90.50
2022-11-19T22:28:56.838Z,89.96
2022-11-19T22:31:25.295Z,89.92
2022-11-19T22:33:54.105Z,89.89
2022-11-19T22:36:22.562Z,89.72
2022-11-19T22:38:51.639Z,89.67
2022-11-19T22:41:21.159Z,89.32
2022-11-19T22:43:49.518Z,89.52
2022-11-19T22:46:17.878Z,89.64
2022-11-19T22:48:45.319Z,89.64
2022-11-19T22:51:21.958Z,89.76
2022-11-19T22:53:51.799Z,90.41
2022-11-19T22:56:22.319Z,91.08
2022-11-19T22:58:50.208Z,91.32
2022-11-19T23:01:17.854Z,91.85
2022-11-19T23:03:47.766Z,92.04
2022-11-19T23:06:15.806Z,92.31
2022-11-19T23:08:44.492Z,92.78
2022-11-19T23:11:13.717Z,93.47
2022-11-19T23:13:42.998Z,94.17
2022-11-19T23:16:14.049Z,94.51
2022-11-19T23:18:47.038Z,95.33
2022-11-19T23:21:15.854Z,95.55
2022-11-19T23:23:43.478Z,95.90
2022-11-19T23:26:21.720Z,96.12
2022-11-19T23:28:49.518Z,95.92
2022-11-19T23:31:31.941Z,95.54
2022-11-19T23:34:06.369Z,95.17
2022-11-19T23:36:37.131Z,94.51
2022-11-19T23:39:05.719Z,93.90
2022-11-19T23:41:34.637Z,93.61
2022-11-19T23:44:03.160Z,93.39
2022-11-19T23:46:37.045Z,93.23
2022-11-19T23:49:05.895Z,93.06
2022-11-19T23:51:40.408Z,92.42
2022-11-19T23:54:08.757Z,92.51
2022-11-19T23:56:36.618Z,92.89
2022-11-19T23:59:06.730Z,92.77
